SAA281 YPPH-FAOR
Flight info
| Callsign | SAA281 |
|---|---|
| Flight time | N/A |
| Altitude | 34000 |
| Route | OPEGA1 OPEGA DCT 33S108E 35S101E 36S095E/N0470F360 37S088E 38S082E DCT SUNKI UT451 UPNEK/N0469F380 UT451 RAXES DCT 35S051E 33S045E 31S040E/N0470F400 DCT EGSOX Q21 ALENI UZ9 UNPOM UNPOM1A |
| Aircraft | A343/H-SDE2E3FGHIJ4J5M1RWXY/LB1D1 |
Departure
| Time | 2026-05-05 16:08 |
|---|---|
| Airport | Perth International Airport (YPPH) |
Arrival
| Time | N/A |
|---|---|
| Airport | O.R. Tambo International Airport (FAOR) |
| Time | Latitude | Longitude | Altitude | Speed | Heading |
|---|---|---|---|---|---|
| 2026-05-05 15:32 | -31.93987 | 115.97444 | 71 ft | 0 kts | 172° |
| 2026-05-05 15:55 | -31.93985 | 115.97443 | 71 ft | 2 kts | 172° |
| 2026-05-05 15:56 | -31.93961 | 115.97434 | 62 ft | 4 kts | 153° |
| 2026-05-05 15:56 | -31.93939 | 115.97428 | 61 ft | 4 kts | 187° |
| 2026-05-05 15:56 | -31.93916 | 115.97437 | 61 ft | 4 kts | 237° |
| 2026-05-05 15:56 | -31.93912 | 115.97465 | 61 ft | 4 kts | 279° |
| 2026-05-05 15:57 | -31.93916 | 115.97494 | 61 ft | 2 kts | 272° |
| 2026-05-05 15:57 | -31.93916 | 115.97495 | 61 ft | 0 kts | 272° |
| 2026-05-05 16:01 | -31.93916 | 115.97483 | 62 ft | 3 kts | 272° |
| 2026-05-05 16:02 | -31.93914 | 115.97444 | 64 ft | 6 kts | 274° |
| 2026-05-05 16:02 | -31.93892 | 115.97394 | 61 ft | 8 kts | 316° |
| 2026-05-05 16:02 | -31.93837 | 115.97351 | 63 ft | 11 kts | 328° |
| 2026-05-05 16:02 | -31.93766 | 115.97300 | 64 ft | 13 kts | 328° |
| 2026-05-05 16:03 | -31.93682 | 115.97239 | 61 ft | 15 kts | 328° |
| 2026-05-05 16:03 | -31.93585 | 115.97171 | 66 ft | 17 kts | 329° |
| 2026-05-05 16:03 | -31.93484 | 115.97101 | 64 ft | 16 kts | 329° |
| 2026-05-05 16:03 | -31.93407 | 115.97051 | 64 ft | 7 kts | 340° |
| 2026-05-05 16:04 | -31.93357 | 115.97053 | 67 ft | 8 kts | 13° |
| 2026-05-05 16:04 | -31.93297 | 115.97071 | 61 ft | 10 kts | 14° |
| 2026-05-05 16:04 | -31.93226 | 115.97091 | 67 ft | 11 kts | 14° |
| 2026-05-05 16:04 | -31.93145 | 115.97115 | 66 ft | 12 kts | 13° |
| 2026-05-05 16:05 | -31.93058 | 115.97139 | 63 ft | 14 kts | 13° |
| 2026-05-05 16:05 | -31.92965 | 115.97154 | 63 ft | 12 kts | 344° |
| 2026-05-05 16:05 | -31.92932 | 115.97095 | 65 ft | 4 kts | 282° |
| 2026-05-05 16:05 | -31.92931 | 115.97091 | 66 ft | 0 kts | 282° |
| 2026-05-05 16:06 | -31.92927 | 115.97070 | 69 ft | 6 kts | 283° |
| 2026-05-05 16:06 | -31.92909 | 115.96979 | 64 ft | 15 kts | 284° |
| 2026-05-05 16:06 | -31.92887 | 115.96877 | 65 ft | 8 kts | 278° |
| 2026-05-05 16:07 | -31.92912 | 115.96831 | 64 ft | 7 kts | 210° |
| 2026-05-05 16:07 | -31.92958 | 115.96817 | 66 ft | 7 kts | 193° |
| 2026-05-05 16:07 | -31.93042 | 115.96794 | 66 ft | 24 kts | 194° |
| 2026-05-05 16:07 | -31.93374 | 115.96696 | 65 ft | 77 kts | 194° |
| 2026-05-05 16:08 | -31.94064 | 115.96497 | 66 ft | 125 kts | 193° |
| 2026-05-05 16:08 | -31.95050 | 115.96214 | 106 ft | 161 kts | 193° |
| 2026-05-05 16:08 | -31.96158 | 115.95901 | 512 ft | 167 kts | 193° |
| 2026-05-05 16:08 | -31.97312 | 115.95573 | 984 ft | 173 kts | 192° |
| 2026-05-05 16:09 | -31.98489 | 115.95213 | 1472 ft | 175 kts | 190° |
| 2026-05-05 16:09 | -31.99698 | 115.94860 | 1735 ft | 187 kts | 189° |
| 2026-05-05 16:09 | -32.00985 | 115.94328 | 1903 ft | 206 kts | 206° |
| 2026-05-05 16:09 | -32.02055 | 115.93145 | 2138 ft | 224 kts | 236° |
| 2026-05-05 16:10 | -32.02452 | 115.91326 | 2316 ft | 242 kts | 276° |
| 2026-05-05 16:10 | -32.02162 | 115.89302 | 2530 ft | 259 kts | 281° |
| 2026-05-05 16:10 | -32.01883 | 115.87157 | 2940 ft | 270 kts | 279° |
| 2026-05-05 16:10 | -32.01616 | 115.84948 | 3527 ft | 274 kts | 279° |
| 2026-05-05 16:11 | -32.01343 | 115.82728 | 4177 ft | 274 kts | 279° |
| 2026-05-05 16:11 | -32.00492 | 115.76047 | 6095 ft | 279 kts | 277° |
| 2026-05-05 16:12 | -32.00200 | 115.73780 | 6713 ft | 281 kts | 277° |
| 2026-05-05 16:12 | -31.99550 | 115.69197 | 7843 ft | 288 kts | 284° |
| 2026-05-05 16:13 | -31.95814 | 115.63545 | 9446 ft | 301 kts | 312° |
| 2026-05-05 16:13 | -31.94367 | 115.61782 | 9934 ft | 305 kts | 312° |
| 2026-05-05 16:13 | -31.92882 | 115.59967 | 10444 ft | 308 kts | 312° |
| 2026-05-05 16:14 | -31.89808 | 115.56189 | 11012 ft | 331 kts | 312° |
| 2026-05-05 16:14 | -31.86904 | 115.51794 | 11443 ft | 352 kts | 290° |
| 2026-05-05 16:15 | -31.85488 | 115.46128 | 11926 ft | 371 kts | 283° |
| 2026-05-05 16:15 | -31.84131 | 115.40171 | 12595 ft | 384 kts | 283° |
| 2026-05-05 16:16 | -31.82710 | 115.34048 | 13450 ft | 392 kts | 283° |
| 2026-05-05 16:16 | -31.81241 | 115.27743 | 14148 ft | 404 kts | 284° |
| 2026-05-05 16:17 | -31.80030 | 115.21347 | 15236 ft | 402 kts | 279° |
| 2026-05-05 16:17 | -31.79526 | 115.18139 | 15595 ft | 406 kts | 279° |
| 2026-05-05 16:18 | -31.78459 | 115.11609 | 16616 ft | 407 kts | 280° |
| 2026-05-05 16:18 | -31.77910 | 115.08331 | 17077 ft | 409 kts | 279° |
| 2026-05-05 16:18 | -31.76789 | 115.01716 | 17946 ft | 415 kts | 280° |
| 2026-05-05 16:19 | -31.76222 | 114.98389 | 18418 ft | 416 kts | 281° |
| 2026-05-05 16:19 | -31.75648 | 114.95035 | 18818 ft | 419 kts | 280° |
| 2026-05-05 16:19 | -31.74496 | 114.88299 | 19644 ft | 421 kts | 280° |
| 2026-05-05 16:20 | -31.73338 | 114.81575 | 20450 ft | 423 kts | 281° |
| 2026-05-05 16:20 | -31.72163 | 114.74781 | 21217 ft | 427 kts | 281° |
| 2026-05-05 16:21 | -31.70973 | 114.67920 | 21953 ft | 430 kts | 281° |
| 2026-05-05 16:22 | -31.69167 | 114.57546 | 23123 ft | 434 kts | 281° |
| 2026-05-05 16:22 | -31.67959 | 114.50633 | 24015 ft | 432 kts | 281° |
| 2026-05-05 16:23 | -31.66730 | 114.43621 | 24375 ft | 441 kts | 281° |
| 2026-05-05 16:23 | -31.66111 | 114.40100 | 24764 ft | 440 kts | 281° |
| 2026-05-05 16:23 | -31.64861 | 114.33005 | 25061 ft | 450 kts | 281° |
| 2026-05-05 16:24 | -31.64225 | 114.29412 | 25417 ft | 450 kts | 281° |
| 2026-05-05 16:24 | -31.63589 | 114.25818 | 25803 ft | 448 kts | 281° |
| 2026-05-05 16:24 | -31.62308 | 114.18601 | 26303 ft | 452 kts | 281° |
| 2026-05-05 16:25 | -31.61663 | 114.14974 | 26599 ft | 453 kts | 281° |
| 2026-05-05 16:25 | -31.60376 | 114.07751 | 26966 ft | 460 kts | 281° |
| 2026-05-05 16:25 | -31.59717 | 114.04070 | 27259 ft | 460 kts | 281° |
| 2026-05-05 16:26 | -31.58390 | 113.96668 | 27553 ft | 467 kts | 281° |
| 2026-05-05 16:26 | -31.57053 | 113.89244 | 28208 ft | 466 kts | 281° |
| 2026-05-05 16:27 | -31.56380 | 113.85516 | 28392 ft | 469 kts | 281° |
| 2026-05-05 16:27 | -31.55703 | 113.81767 | 28594 ft | 469 kts | 280° |
| 2026-05-05 16:27 | -31.55026 | 113.78031 | 28985 ft | 468 kts | 280° |
| 2026-05-05 16:27 | -31.54348 | 113.74289 | 29095 ft | 471 kts | 280° |
| 2026-05-05 16:28 | -31.53664 | 113.70520 | 29299 ft | 473 kts | 281° |
| 2026-05-05 16:28 | -31.53208 | 113.68017 | 29444 ft | 473 kts | 281° |
| 2026-05-05 16:28 | -31.52523 | 113.64262 | 29918 ft | 469 kts | 281° |
| 2026-05-05 16:28 | -31.51616 | 113.59292 | 30165 ft | 471 kts | 281° |
| 2026-05-05 16:29 | -31.50930 | 113.55543 | 30407 ft | 471 kts | 281° |
| 2026-05-05 16:29 | -31.50241 | 113.51785 | 30742 ft | 468 kts | 280° |
| 2026-05-05 16:29 | -31.49790 | 113.49329 | 30972 ft | 466 kts | 281° |
| 2026-05-05 16:29 | -31.49107 | 113.45611 | 31147 ft | 466 kts | 281° |
| 2026-05-05 16:30 | -31.48585 | 113.41869 | 31461 ft | 462 kts | 274° |
| 2026-05-05 16:30 | -31.48512 | 113.38131 | 31765 ft | 458 kts | 265° |
| 2026-05-05 16:30 | -31.49831 | 113.30847 | 32054 ft | 459 kts | 251° |
| 2026-05-05 16:31 | -31.50876 | 113.27319 | 32291 ft | 457 kts | 250° |
| 2026-05-05 16:31 | -31.51964 | 113.23807 | 32334 ft | 459 kts | 250° |
| 2026-05-05 16:31 | -31.54170 | 113.16790 | 32333 ft | 457 kts | 250° |
| 2026-05-05 16:32 | -31.56344 | 113.09793 | 32336 ft | 457 kts | 250° |
| 2026-05-05 16:32 | -31.58499 | 113.02776 | 32336 ft | 457 kts | 250° |
| 2026-05-05 16:33 | -31.60629 | 112.95795 | 32338 ft | 457 kts | 250° |
| 2026-05-05 16:33 | -31.62769 | 112.88769 | 32338 ft | 457 kts | 250° |
| 2026-05-05 16:34 | -31.64907 | 112.81737 | 32339 ft | 457 kts | 250° |
| 2026-05-05 16:34 | -31.67039 | 112.74713 | 32338 ft | 457 kts | 250° |
| 2026-05-05 16:35 | -31.69167 | 112.67682 | 32341 ft | 457 kts | 250° |
| 2026-05-05 16:35 | -31.71280 | 112.60688 | 32344 ft | 457 kts | 250° |
| 2026-05-05 16:36 | -31.73400 | 112.53652 | 32346 ft | 457 kts | 250° |
| 2026-05-05 16:36 | -31.75519 | 112.46603 | 32346 ft | 457 kts | 250° |
| 2026-05-05 16:37 | -31.77639 | 112.39536 | 32346 ft | 457 kts | 250° |
| 2026-05-05 16:37 | -31.79749 | 112.32487 | 32351 ft | 457 kts | 250° |
| 2026-05-05 16:38 | -31.81851 | 112.25447 | 32352 ft | 457 kts | 250° |
| 2026-05-05 16:38 | -31.83945 | 112.18418 | 32352 ft | 458 kts | 250° |
| 2026-05-05 16:39 | -31.86048 | 112.11342 | 32352 ft | 458 kts | 250° |
| 2026-05-05 16:39 | -31.88148 | 112.04263 | 32355 ft | 458 kts | 250° |
| 2026-05-05 16:40 | -31.90242 | 111.97185 | 32355 ft | 458 kts | 250° |
| 2026-05-05 16:40 | -31.92317 | 111.90155 | 32354 ft | 457 kts | 250° |
| 2026-05-05 16:41 | -31.94401 | 111.83081 | 32355 ft | 457 kts | 250° |
| 2026-05-05 16:41 | -31.96484 | 111.75989 | 32356 ft | 458 kts | 250° |
| 2026-05-05 16:42 | -31.98570 | 111.68873 | 32358 ft | 459 kts | 250° |
| 2026-05-05 16:42 | -32.00652 | 111.61753 | 32358 ft | 459 kts | 250° |
| 2026-05-05 16:43 | -32.02718 | 111.54668 | 32358 ft | 460 kts | 250° |
| 2026-05-05 16:43 | -32.04790 | 111.47548 | 32361 ft | 460 kts | 250° |
| 2026-05-05 16:44 | -32.06863 | 111.40410 | 32360 ft | 459 kts | 250° |
| 2026-05-05 16:44 | -32.08929 | 111.33278 | 32359 ft | 459 kts | 250° |
| 2026-05-05 16:45 | -32.10979 | 111.26184 | 32367 ft | 459 kts | 250° |
| 2026-05-05 16:45 | -32.13042 | 111.19029 | 32362 ft | 459 kts | 250° |
| 2026-05-05 16:46 | -32.15084 | 111.11928 | 32365 ft | 460 kts | 250° |
| 2026-05-05 16:46 | -32.17138 | 111.04769 | 32366 ft | 460 kts | 250° |
| 2026-05-05 16:47 | -32.19189 | 110.97600 | 32366 ft | 461 kts | 250° |
| 2026-05-05 16:47 | -32.21234 | 110.90440 | 32366 ft | 460 kts | 250° |
| 2026-05-05 16:48 | -32.23264 | 110.83314 | 32368 ft | 459 kts | 250° |
| 2026-05-05 16:48 | -32.25298 | 110.76151 | 32368 ft | 460 kts | 250° |
| 2026-05-05 16:49 | -32.27329 | 110.68983 | 32370 ft | 460 kts | 250° |
| 2026-05-05 16:49 | -32.29358 | 110.61807 | 32371 ft | 460 kts | 250° |
| 2026-05-05 16:50 | -32.31383 | 110.54628 | 32371 ft | 460 kts | 250° |
| 2026-05-05 16:50 | -32.33405 | 110.47444 | 32371 ft | 460 kts | 250° |
| 2026-05-05 16:51 | -32.35421 | 110.40262 | 32372 ft | 461 kts | 250° |
| 2026-05-05 16:51 | -32.37437 | 110.33058 | 32371 ft | 461 kts | 250° |
| 2026-05-05 16:52 | -32.39446 | 110.25864 | 32370 ft | 461 kts | 250° |
| 2026-05-05 16:52 | -32.41444 | 110.18693 | 32370 ft | 461 kts | 250° |
| 2026-05-05 16:53 | -32.43452 | 110.11463 | 32369 ft | 461 kts | 250° |
| 2026-05-05 16:53 | -32.45454 | 110.04245 | 32374 ft | 462 kts | 250° |
| 2026-05-05 16:54 | -32.47453 | 109.97017 | 32374 ft | 462 kts | 250° |
| 2026-05-05 16:54 | -32.49440 | 109.89813 | 32379 ft | 462 kts | 250° |
| 2026-05-05 16:55 | -32.51432 | 109.82575 | 32376 ft | 462 kts | 250° |
| 2026-05-05 16:55 | -32.53424 | 109.75319 | 32375 ft | 462 kts | 250° |
| 2026-05-05 16:56 | -32.55411 | 109.68059 | 32373 ft | 462 kts | 250° |
| 2026-05-05 16:56 | -32.57380 | 109.60848 | 32379 ft | 462 kts | 250° |
| 2026-05-05 16:57 | -32.59355 | 109.53592 | 32382 ft | 462 kts | 250° |
| 2026-05-05 16:57 | -32.61329 | 109.46325 | 32377 ft | 463 kts | 250° |
| 2026-05-05 16:58 | -32.63304 | 109.39038 | 32379 ft | 464 kts | 250° |
| 2026-05-05 16:58 | -32.65263 | 109.31795 | 32379 ft | 464 kts | 250° |
| 2026-05-05 16:59 | -32.67227 | 109.24503 | 32381 ft | 463 kts | 250° |
| 2026-05-05 16:59 | -32.69190 | 109.17203 | 32381 ft | 463 kts | 250° |
| 2026-05-05 17:00 | -32.71147 | 109.09901 | 32381 ft | 463 kts | 250° |
| 2026-05-05 17:00 | -32.73090 | 109.02640 | 32385 ft | 464 kts | 250° |
| 2026-05-05 17:01 | -32.75043 | 108.95320 | 32385 ft | 465 kts | 250° |
| 2026-05-05 17:01 | -32.77001 | 108.87969 | 32384 ft | 466 kts | 250° |
| 2026-05-05 17:02 | -32.78954 | 108.80609 | 32384 ft | 466 kts | 250° |
| 2026-05-05 17:02 | -32.80885 | 108.73310 | 32383 ft | 466 kts | 250° |
| 2026-05-05 17:03 | -32.82829 | 108.65940 | 32384 ft | 466 kts | 250° |
| 2026-05-05 17:03 | -32.84768 | 108.58577 | 32384 ft | 466 kts | 250° |
| 2026-05-05 17:04 | -32.86688 | 108.51268 | 32387 ft | 466 kts | 250° |
| 2026-05-05 17:04 | -32.88618 | 108.43900 | 32387 ft | 466 kts | 250° |
| 2026-05-05 17:05 | -32.90545 | 108.36523 | 32385 ft | 467 kts | 250° |
| 2026-05-05 17:05 | -32.92467 | 108.29138 | 32384 ft | 467 kts | 250° |
| 2026-05-05 17:06 | -32.94376 | 108.21797 | 32384 ft | 466 kts | 250° |
| 2026-05-05 17:06 | -32.96293 | 108.14396 | 32387 ft | 467 kts | 250° |
| 2026-05-05 17:07 | -32.98205 | 108.06998 | 32387 ft | 467 kts | 250° |
| 2026-05-05 17:07 | -33.00100 | 107.99644 | 32387 ft | 467 kts | 251° |
| 2026-05-05 17:08 | -33.02262 | 107.92359 | 32387 ft | 466 kts | 246° |
| 2026-05-05 17:08 | -33.04655 | 107.85222 | 32387 ft | 466 kts | 245° |
| 2026-05-05 17:09 | -33.07024 | 107.78042 | 32387 ft | 466 kts | 246° |
| 2026-05-05 17:09 | -33.09341 | 107.70835 | 32387 ft | 466 kts | 247° |
| 2026-05-05 17:10 | -33.11636 | 107.63600 | 32387 ft | 466 kts | 246° |
| 2026-05-05 17:10 | -33.13927 | 107.56358 | 32389 ft | 466 kts | 247° |
| 2026-05-05 17:11 | -33.16204 | 107.49153 | 32390 ft | 466 kts | 246° |
| 2026-05-05 17:11 | -33.18491 | 107.41898 | 32395 ft | 466 kts | 248° |
| 2026-05-05 17:12 | -33.20770 | 107.34659 | 32394 ft | 467 kts | 248° |
| 2026-05-05 17:12 | -33.23056 | 107.27380 | 32392 ft | 467 kts | 247° |
| 2026-05-05 17:13 | -33.25333 | 107.20114 | 32395 ft | 467 kts | 248° |
| 2026-05-05 17:13 | -33.27596 | 107.12877 | 32396 ft | 467 kts | 247° |
| 2026-05-05 17:14 | -33.29871 | 107.05585 | 32396 ft | 468 kts | 247° |
| 2026-05-05 17:14 | -33.32138 | 106.98287 | 32395 ft | 469 kts | 247° |
| 2026-05-05 17:15 | -33.34408 | 106.90973 | 32397 ft | 469 kts | 247° |
| 2026-05-05 17:15 | -33.36676 | 106.83653 | 32401 ft | 469 kts | 248° |
| 2026-05-05 17:16 | -33.38921 | 106.76377 | 32398 ft | 469 kts | 247° |
| 2026-05-05 17:16 | -33.41181 | 106.69044 | 32391 ft | 469 kts | 248° |
| 2026-05-05 17:17 | -33.43434 | 106.61713 | 32397 ft | 470 kts | 248° |
| 2026-05-05 17:17 | -33.45306 | 106.55604 | 32397 ft | 470 kts | 247° |
| 2026-05-05 17:18 | -33.47561 | 106.48234 | 32401 ft | 470 kts | 248° |
| 2026-05-05 17:18 | -33.50168 | 106.39692 | 32400 ft | 470 kts | 247° |
| 2026-05-05 17:19 | -33.52031 | 106.33575 | 32391 ft | 470 kts | 247° |
| 2026-05-05 17:19 | -33.54267 | 106.26209 | 32397 ft | 470 kts | 247° |
| 2026-05-05 17:20 | -33.56502 | 106.18836 | 32399 ft | 470 kts | 247° |
| 2026-05-05 17:20 | -33.58717 | 106.11504 | 32400 ft | 470 kts | 248° |
| 2026-05-05 17:21 | -33.60940 | 106.04129 | 32398 ft | 469 kts | 248° |
| 2026-05-05 17:22 | -33.64261 | 105.93073 | 32394 ft | 470 kts | 248° |
| 2026-05-05 17:22 | -33.66473 | 105.85697 | 32402 ft | 470 kts | 248° |
| 2026-05-05 17:23 | -33.68681 | 105.78309 | 32402 ft | 470 kts | 248° |
| 2026-05-05 17:23 | -33.70872 | 105.70958 | 32403 ft | 470 kts | 248° |
| 2026-05-05 17:24 | -33.73072 | 105.63563 | 32399 ft | 470 kts | 248° |
| 2026-05-05 17:24 | -33.75265 | 105.56165 | 32402 ft | 470 kts | 249° |
| 2026-05-05 17:25 | -33.77459 | 105.48750 | 32405 ft | 470 kts | 249° |
| 2026-05-05 17:25 | -33.79639 | 105.41369 | 32405 ft | 470 kts | 249° |
| 2026-05-05 17:26 | -33.81824 | 105.33944 | 32398 ft | 470 kts | 248° |
| 2026-05-05 17:26 | -33.84004 | 105.26516 | 32397 ft | 470 kts | 249° |
| 2026-05-05 17:27 | -33.86180 | 105.19086 | 32400 ft | 470 kts | 249° |
| 2026-05-05 17:27 | -33.88350 | 105.11660 | 32396 ft | 471 kts | 249° |
| 2026-05-05 17:28 | -33.90515 | 105.04230 | 32396 ft | 470 kts | 248° |
| 2026-05-05 17:28 | -33.92672 | 104.96806 | 32401 ft | 470 kts | 249° |
| 2026-05-05 17:29 | -33.94820 | 104.89394 | 32401 ft | 470 kts | 249° |
| 2026-05-05 17:29 | -33.96973 | 104.81941 | 32403 ft | 470 kts | 249° |
| 2026-05-05 17:30 | -33.99104 | 104.74555 | 32397 ft | 469 kts | 249° |
| 2026-05-05 17:30 | -34.01247 | 104.67110 | 32404 ft | 470 kts | 249° |
| 2026-05-05 17:31 | -34.03384 | 104.59658 | 32409 ft | 470 kts | 249° |
| 2026-05-05 17:31 | -34.05517 | 104.52199 | 32410 ft | 470 kts | 249° |
| 2026-05-05 17:32 | -34.07644 | 104.44747 | 32399 ft | 470 kts | 249° |
| 2026-05-05 17:32 | -34.09770 | 104.37282 | 32405 ft | 470 kts | 249° |
| 2026-05-05 17:33 | -34.11886 | 104.29826 | 32406 ft | 470 kts | 249° |
| 2026-05-05 17:33 | -34.13988 | 104.22402 | 32403 ft | 470 kts | 250° |
| 2026-05-05 17:34 | -34.16097 | 104.14939 | 32401 ft | 470 kts | 249° |
| 2026-05-05 17:34 | -34.18204 | 104.07462 | 32659 ft | 469 kts | 250° |
| 2026-05-05 17:34 | -34.19251 | 104.03732 | 32859 ft | 468 kts | 249° |
| 2026-05-05 17:35 | -34.20293 | 104.00018 | 33143 ft | 466 kts | 249° |
| 2026-05-05 17:35 | -34.21334 | 103.96304 | 33299 ft | 467 kts | 250° |
| 2026-05-05 17:35 | -34.22373 | 103.92591 | 33566 ft | 465 kts | 249° |
| 2026-05-05 17:35 | -34.23408 | 103.88888 | 33698 ft | 466 kts | 250° |
| 2026-05-05 17:36 | -34.24443 | 103.85187 | 33939 ft | 464 kts | 250° |
| 2026-05-05 17:36 | -34.25476 | 103.81486 | 34081 ft | 465 kts | 250° |
| 2026-05-05 17:36 | -34.26506 | 103.77787 | 34280 ft | 463 kts | 250° |
| 2026-05-05 17:36 | -34.27520 | 103.74140 | 34397 ft | 464 kts | 250° |
| 2026-05-05 17:37 | -34.28551 | 103.70427 | 34405 ft | 465 kts | 249° |
| 2026-05-05 17:37 | -34.30599 | 103.63037 | 34404 ft | 463 kts | 250° |
| 2026-05-05 17:38 | -34.32642 | 103.55646 | 34405 ft | 463 kts | 249° |
| 2026-05-05 17:38 | -34.34684 | 103.48251 | 34395 ft | 462 kts | 250° |
| 2026-05-05 17:39 | -34.36714 | 103.40866 | 34400 ft | 462 kts | 251° |
| 2026-05-05 17:39 | -34.38732 | 103.33507 | 34397 ft | 462 kts | 250° |
| 2026-05-05 17:40 | -34.40760 | 103.26099 | 34401 ft | 463 kts | 251° |
| 2026-05-05 17:40 | -34.42780 | 103.18694 | 34402 ft | 463 kts | 250° |
| 2026-05-05 17:41 | -34.44783 | 103.11330 | 34404 ft | 463 kts | 250° |
| 2026-05-05 17:41 | -34.46792 | 103.03925 | 34406 ft | 461 kts | 251° |
| 2026-05-05 17:42 | -34.48793 | 102.96536 | 34399 ft | 461 kts | 251° |
| 2026-05-05 17:42 | -34.50786 | 102.89147 | 34397 ft | 460 kts | 251° |
| 2026-05-05 17:43 | -34.52775 | 102.81759 | 34400 ft | 461 kts | 251° |
| 2026-05-05 17:43 | -34.54751 | 102.74402 | 34399 ft | 461 kts | 251° |
| 2026-05-05 17:44 | -34.56738 | 102.66981 | 34400 ft | 462 kts | 251° |
| 2026-05-05 17:44 | -34.58723 | 102.59545 | 34401 ft | 462 kts | 251° |
| 2026-05-05 17:45 | -34.60688 | 102.52163 | 34404 ft | 462 kts | 251° |
| 2026-05-05 17:45 | -34.62664 | 102.44721 | 34398 ft | 462 kts | 251° |
| 2026-05-05 17:46 | -34.64631 | 102.37290 | 34398 ft | 462 kts | 252° |
| 2026-05-05 17:46 | -34.66603 | 102.29824 | 34400 ft | 464 kts | 252° |
| 2026-05-05 17:47 | -34.68571 | 102.22348 | 34399 ft | 465 kts | 252° |
| 2026-05-05 17:47 | -34.70523 | 102.14913 | 34403 ft | 465 kts | 252° |
| 2026-05-05 17:48 | -34.72487 | 102.07416 | 34400 ft | 465 kts | 252° |
| 2026-05-05 17:48 | -34.74441 | 101.99930 | 34401 ft | 465 kts | 252° |
| 2026-05-05 17:49 | -34.76396 | 101.92422 | 34403 ft | 465 kts | 252° |
| 2026-05-05 17:49 | -34.78333 | 101.84962 | 34402 ft | 465 kts | 252° |
| 2026-05-05 17:50 | -34.80278 | 101.77450 | 34404 ft | 465 kts | 253° |
| 2026-05-05 17:50 | -34.82220 | 101.69927 | 34406 ft | 465 kts | 253° |
| 2026-05-05 17:51 | -34.84157 | 101.62403 | 34409 ft | 465 kts | 253° |
| 2026-05-05 17:51 | -34.86085 | 101.54893 | 34398 ft | 465 kts | 253° |
| 2026-05-05 17:52 | -34.88006 | 101.47385 | 34403 ft | 465 kts | 253° |
| 2026-05-05 17:52 | -34.89915 | 101.39908 | 34402 ft | 465 kts | 253° |
| 2026-05-05 17:53 | -34.91836 | 101.32360 | 34402 ft | 464 kts | 253° |
| 2026-05-05 17:53 | -34.93743 | 101.24846 | 34409 ft | 463 kts | 253° |
| 2026-05-05 17:54 | -34.95626 | 101.17403 | 34409 ft | 462 kts | 253° |
| 2026-05-05 17:54 | -34.97518 | 101.09905 | 34411 ft | 462 kts | 253° |
| 2026-05-05 17:55 | -34.99402 | 101.02416 | 34413 ft | 462 kts | 253° |
| 2026-05-05 17:55 | -35.01169 | 100.94928 | 34405 ft | 462 kts | 257° |
| 2026-05-05 17:56 | -35.02588 | 100.87256 | 34400 ft | 463 kts | 258° |
| 2026-05-05 17:56 | -35.03972 | 100.79574 | 34399 ft | 463 kts | 258° |
| 2026-05-05 17:57 | -35.05404 | 100.71922 | 34403 ft | 463 kts | 257° |
| 2026-05-05 17:57 | -35.06861 | 100.64277 | 34400 ft | 463 kts | 257° |
| 2026-05-05 17:58 | -35.08312 | 100.56666 | 34403 ft | 462 kts | 257° |
| 2026-05-05 17:58 | -35.09763 | 100.49014 | 34399 ft | 461 kts | 257° |
| 2026-05-05 17:59 | -35.11201 | 100.41398 | 34398 ft | 460 kts | 258° |
| 2026-05-05 17:59 | -35.12632 | 100.33783 | 34400 ft | 460 kts | 258° |
| 2026-05-05 18:00 | -35.14053 | 100.26198 | 34398 ft | 460 kts | 257° |
| 2026-05-05 18:00 | -35.15480 | 100.18551 | 34402 ft | 460 kts | 258° |
| 2026-05-05 18:01 | -35.16897 | 100.10930 | 34399 ft | 459 kts | 258° |
| 2026-05-05 18:01 | -35.18307 | 100.03326 | 34397 ft | 459 kts | 258° |
| 2026-05-05 18:02 | -35.19702 | 99.95764 | 34389 ft | 458 kts | 258° |
| 2026-05-05 18:02 | -35.21102 | 99.88147 | 34388 ft | 458 kts | 258° |
| 2026-05-05 18:03 | -35.22499 | 99.80516 | 34388 ft | 459 kts | 258° |
| 2026-05-05 18:03 | -35.23878 | 99.72955 | 34388 ft | 458 kts | 258° |
| 2026-05-05 18:04 | -35.25263 | 99.65340 | 34386 ft | 458 kts | 258° |
| 2026-05-05 18:04 | -35.26645 | 99.57711 | 34386 ft | 458 kts | 258° |
| 2026-05-05 18:05 | -35.28020 | 99.50091 | 34384 ft | 458 kts | 258° |
| 2026-05-05 18:05 | -35.29380 | 99.42523 | 34385 ft | 458 kts | 258° |
| 2026-05-05 18:06 | -35.30745 | 99.34899 | 34384 ft | 457 kts | 258° |
| 2026-05-05 18:06 | -35.32103 | 99.27286 | 34384 ft | 457 kts | 258° |
| 2026-05-05 18:07 | -35.33228 | 99.20957 | 34383 ft | 458 kts | 258° |
| 2026-05-05 18:07 | -35.34796 | 99.12100 | 34382 ft | 457 kts | 258° |
| 2026-05-05 18:08 | -35.36139 | 99.04484 | 34373 ft | 457 kts | 258° |
| 2026-05-05 18:08 | -35.37254 | 98.98136 | 34374 ft | 457 kts | 258° |
| 2026-05-05 18:09 | -35.38587 | 98.90517 | 34374 ft | 457 kts | 258° |
| 2026-05-05 18:09 | -35.39915 | 98.82904 | 34373 ft | 456 kts | 258° |
| 2026-05-05 18:10 | -35.41239 | 98.75281 | 34368 ft | 457 kts | 258° |
| 2026-05-05 18:10 | -35.42557 | 98.67663 | 34372 ft | 457 kts | 258° |
| 2026-05-05 18:11 | -35.43871 | 98.60035 | 34367 ft | 457 kts | 258° |
| 2026-05-05 18:11 | -35.45176 | 98.52434 | 34368 ft | 457 kts | 259° |
| 2026-05-05 18:12 | -35.46482 | 98.44793 | 34369 ft | 457 kts | 259° |
| 2026-05-05 18:12 | -35.47783 | 98.37150 | 34369 ft | 458 kts | 259° |
| 2026-05-05 18:13 | -35.49081 | 98.29498 | 34362 ft | 458 kts | 259° |
| 2026-05-05 18:13 | -35.50364 | 98.21896 | 34362 ft | 458 kts | 259° |
| 2026-05-05 18:14 | -35.51655 | 98.14223 | 34360 ft | 458 kts | 259° |
| 2026-05-05 18:14 | -35.52937 | 98.06567 | 34360 ft | 458 kts | 259° |
| 2026-05-05 18:15 | -35.54216 | 97.98901 | 34360 ft | 458 kts | 259° |
| 2026-05-05 18:15 | -35.55489 | 97.91241 | 34360 ft | 458 kts | 259° |
| 2026-05-05 18:16 | -35.56758 | 97.83574 | 34357 ft | 458 kts | 259° |
| 2026-05-05 18:16 | -35.58020 | 97.75912 | 34357 ft | 458 kts | 259° |
| 2026-05-05 18:17 | -35.59271 | 97.68287 | 34355 ft | 458 kts | 259° |
| 2026-05-05 18:17 | -35.60526 | 97.60611 | 34352 ft | 458 kts | 259° |
| 2026-05-05 18:18 | -35.61774 | 97.52939 | 34349 ft | 457 kts | 259° |
| 2026-05-05 18:18 | -35.63009 | 97.45318 | 34351 ft | 456 kts | 259° |
| 2026-05-05 18:19 | -35.64244 | 97.37665 | 34352 ft | 456 kts | 259° |
| 2026-05-05 18:19 | -35.65475 | 97.30001 | 34352 ft | 457 kts | 259° |
| 2026-05-05 18:20 | -35.66703 | 97.22325 | 34349 ft | 456 kts | 259° |
| 2026-05-05 18:20 | -35.67924 | 97.14665 | 34349 ft | 456 kts | 259° |
| 2026-05-05 18:21 | -35.69133 | 97.07044 | 34346 ft | 456 kts | 259° |
| 2026-05-05 18:21 | -35.70345 | 96.99371 | 34347 ft | 457 kts | 259° |
| 2026-05-05 18:22 | -35.71551 | 96.91702 | 34344 ft | 456 kts | 259° |
| 2026-05-05 18:22 | -35.72753 | 96.84023 | 34339 ft | 456 kts | 259° |
| 2026-05-05 18:23 | -35.73947 | 96.76362 | 34338 ft | 455 kts | 259° |
| 2026-05-05 18:23 | -35.75136 | 96.68703 | 34335 ft | 455 kts | 259° |
| 2026-05-05 18:24 | -35.76311 | 96.61099 | 34335 ft | 455 kts | 259° |
| 2026-05-05 18:24 | -35.77491 | 96.53435 | 34333 ft | 455 kts | 259° |
| 2026-05-05 18:25 | -35.78665 | 96.45771 | 34331 ft | 455 kts | 259° |
| 2026-05-05 18:25 | -35.79827 | 96.38146 | 34330 ft | 455 kts | 259° |
| 2026-05-05 18:26 | -35.80989 | 96.30494 | 34330 ft | 454 kts | 259° |
| 2026-05-05 18:26 | -35.82149 | 96.22823 | 34325 ft | 454 kts | 259° |
| 2026-05-05 18:27 | -35.83300 | 96.15173 | 34327 ft | 454 kts | 259° |
| 2026-05-05 18:27 | -35.84444 | 96.07537 | 34318 ft | 455 kts | 259° |
| 2026-05-05 18:28 | -35.86154 | 95.96052 | 34319 ft | 453 kts | 260° |
| 2026-05-05 18:28 | -35.87286 | 95.88414 | 34320 ft | 453 kts | 260° |
| 2026-05-05 18:29 | -35.88412 | 95.80775 | 34320 ft | 453 kts | 260° |
| 2026-05-05 18:29 | -35.89528 | 95.73168 | 34314 ft | 453 kts | 260° |
| 2026-05-05 18:30 | -35.90644 | 95.65532 | 34316 ft | 452 kts | 260° |
| 2026-05-05 18:30 | -35.91752 | 95.57912 | 34311 ft | 451 kts | 260° |
| 2026-05-05 18:31 | -35.92856 | 95.50286 | 34309 ft | 451 kts | 260° |
| 2026-05-05 18:31 | -35.93955 | 95.42654 | 34306 ft | 451 kts | 260° |
| 2026-05-05 18:32 | -35.95049 | 95.35029 | 34306 ft | 451 kts | 260° |
| 2026-05-05 18:32 | -35.96132 | 95.27435 | 34300 ft | 451 kts | 260° |
| 2026-05-05 18:33 | -35.97216 | 95.19808 | 34303 ft | 451 kts | 260° |
| 2026-05-05 18:33 | -35.98293 | 95.12187 | 34298 ft | 450 kts | 260° |
| 2026-05-05 18:34 | -35.99366 | 95.04566 | 34300 ft | 451 kts | 260° |
| 2026-05-05 18:34 | -36.00455 | 94.96930 | 34295 ft | 451 kts | 259° |
| 2026-05-05 18:35 | -36.01764 | 94.89359 | 34292 ft | 451 kts | 258° |
| 2026-05-05 18:35 | -36.03132 | 94.81801 | 34292 ft | 451 kts | 258° |
| 2026-05-05 18:36 | -36.04466 | 94.74223 | 34293 ft | 451 kts | 258° |
| 2026-05-05 18:36 | -36.05761 | 94.66693 | 34284 ft | 451 kts | 258° |
| 2026-05-05 18:37 | -36.07053 | 94.59111 | 34284 ft | 451 kts | 258° |
| 2026-05-05 18:37 | -36.08346 | 94.51501 | 34281 ft | 451 kts | 259° |
| 2026-05-05 18:38 | -36.09625 | 94.43950 | 34279 ft | 451 kts | 259° |
| 2026-05-05 18:38 | -36.10908 | 94.36345 | 34279 ft | 451 kts | 259° |
| 2026-05-05 18:39 | -36.12187 | 94.28737 | 34276 ft | 451 kts | 259° |
| 2026-05-05 18:39 | -36.13461 | 94.21122 | 34276 ft | 451 kts | 259° |
| 2026-05-05 18:40 | -36.14725 | 94.13544 | 34274 ft | 452 kts | 259° |
| 2026-05-05 18:40 | -36.15991 | 94.05917 | 34267 ft | 453 kts | 259° |
| 2026-05-05 18:41 | -36.17255 | 93.98266 | 34268 ft | 453 kts | 259° |
| 2026-05-05 18:41 | -36.18512 | 93.90629 | 34269 ft | 453 kts | 259° |
| 2026-05-05 18:42 | -36.19766 | 93.82981 | 34262 ft | 452 kts | 259° |
| 2026-05-05 18:42 | -36.21003 | 93.75409 | 34260 ft | 451 kts | 260° |
| 2026-05-05 18:43 | -36.22245 | 93.67765 | 34259 ft | 452 kts | 260° |
| 2026-05-05 18:43 | -36.23481 | 93.60125 | 34259 ft | 453 kts | 260° |
| 2026-05-05 18:44 | -36.24714 | 93.52474 | 34260 ft | 452 kts | 260° |
| 2026-05-05 18:44 | -36.25941 | 93.44830 | 34255 ft | 452 kts | 260° |
| 2026-05-05 18:45 | -36.27156 | 93.37228 | 34252 ft | 453 kts | 260° |
| 2026-05-05 18:45 | -36.28374 | 93.29573 | 34247 ft | 452 kts | 260° |
| 2026-05-05 18:46 | -36.29587 | 93.21919 | 34251 ft | 452 kts | 260° |
| 2026-05-05 18:46 | -36.30795 | 93.14263 | 34242 ft | 453 kts | 260° |
| 2026-05-05 18:47 | -36.32000 | 93.06592 | 34247 ft | 453 kts | 260° |
| 2026-05-05 18:47 | -36.33193 | 92.98966 | 34238 ft | 454 kts | 261° |
| 2026-05-05 18:48 | -36.34392 | 92.91256 | 34241 ft | 455 kts | 261° |
| 2026-05-05 18:48 | -36.35587 | 92.83550 | 34234 ft | 455 kts | 261° |
| 2026-05-05 18:49 | -36.36776 | 92.75846 | 34232 ft | 454 kts | 261° |
| 2026-05-05 18:49 | -36.37961 | 92.68128 | 34228 ft | 455 kts | 261° |
| 2026-05-05 18:50 | -36.39138 | 92.60439 | 34231 ft | 457 kts | 262° |
| 2026-05-05 18:50 | -36.40320 | 92.52673 | 34221 ft | 458 kts | 261° |
| 2026-05-05 18:51 | -36.41498 | 92.44898 | 34222 ft | 457 kts | 262° |
| 2026-05-05 18:51 | -36.42671 | 92.37124 | 34220 ft | 458 kts | 262° |
| 2026-05-05 18:52 | -36.43832 | 92.29392 | 34223 ft | 458 kts | 262° |
| 2026-05-05 18:52 | -36.44996 | 92.21608 | 34211 ft | 458 kts | 262° |
| 2026-05-05 18:53 | -36.46154 | 92.13821 | 34211 ft | 458 kts | 262° |
| 2026-05-05 18:53 | -36.47307 | 92.06037 | 34208 ft | 458 kts | 262° |
| 2026-05-05 18:54 | -36.48447 | 91.98300 | 34201 ft | 457 kts | 262° |
| 2026-05-05 18:54 | -36.49589 | 91.90513 | 34205 ft | 458 kts | 262° |
| 2026-05-05 18:55 | -36.50728 | 91.82709 | 34196 ft | 459 kts | 262° |
| 2026-05-05 18:55 | -36.51857 | 91.74942 | 34200 ft | 459 kts | 263° |
| 2026-05-05 18:56 | -36.52987 | 91.67130 | 34193 ft | 458 kts | 263° |
| 2026-05-05 18:56 | -36.54111 | 91.59324 | 34189 ft | 459 kts | 263° |
| 2026-05-05 18:57 | -36.55042 | 91.52822 | 34188 ft | 459 kts | 262° |
| 2026-05-05 18:57 | -36.56341 | 91.43714 | 34189 ft | 460 kts | 263° |
| 2026-05-05 18:58 | -36.57266 | 91.37195 | 34177 ft | 460 kts | 263° |
| 2026-05-05 18:58 | -36.58374 | 91.29355 | 34189 ft | 460 kts | 263° |
| 2026-05-05 18:59 | -36.59479 | 91.21495 | 34167 ft | 460 kts | 263° |
| 2026-05-05 18:59 | -36.60577 | 91.13641 | 34171 ft | 460 kts | 263° |
| 2026-05-05 19:00 | -36.61671 | 91.05778 | 34174 ft | 460 kts | 263° |
| 2026-05-05 19:00 | -36.62757 | 90.97938 | 34168 ft | 460 kts | 263° |
| 2026-05-05 19:01 | -36.63833 | 90.90128 | 34161 ft | 460 kts | 263° |
| 2026-05-05 19:01 | -36.64910 | 90.82274 | 34160 ft | 460 kts | 263° |
| 2026-05-05 19:02 | -36.65983 | 90.74407 | 34161 ft | 460 kts | 262° |
| 2026-05-05 19:02 | -36.67048 | 90.66567 | 34157 ft | 457 kts | 263° |
| 2026-05-05 19:03 | -36.68098 | 90.58789 | 34148 ft | 457 kts | 263° |
| 2026-05-05 19:03 | -36.69148 | 90.50972 | 34147 ft | 457 kts | 263° |
| 2026-05-05 19:04 | -36.70193 | 90.43150 | 34144 ft | 457 kts | 263° |
| 2026-05-05 19:04 | -36.71232 | 90.35333 | 34149 ft | 457 kts | 263° |
| 2026-05-05 19:05 | -36.72257 | 90.27582 | 34138 ft | 455 kts | 262° |
| 2026-05-05 19:05 | -36.73283 | 90.19783 | 34138 ft | 455 kts | 263° |
| 2026-05-05 19:06 | -36.74303 | 90.11991 | 34131 ft | 456 kts | 263° |
| 2026-05-05 19:06 | -36.75320 | 90.04179 | 34130 ft | 455 kts | 263° |
| 2026-05-05 19:07 | -36.76326 | 89.96411 | 34126 ft | 456 kts | 263° |
| 2026-05-05 19:07 | -36.77334 | 89.88586 | 34123 ft | 457 kts | 263° |
| 2026-05-05 19:08 | -36.78336 | 89.80766 | 34124 ft | 456 kts | 263° |
| 2026-05-05 19:08 | -36.79336 | 89.72927 | 34124 ft | 457 kts | 263° |
| 2026-05-05 19:09 | -36.80327 | 89.65103 | 34117 ft | 457 kts | 263° |
| 2026-05-05 19:09 | -36.81314 | 89.57279 | 34120 ft | 456 kts | 263° |
| 2026-05-05 19:10 | -36.82290 | 89.49494 | 34113 ft | 456 kts | 263° |
| 2026-05-05 19:10 | -36.83266 | 89.41665 | 34113 ft | 457 kts | 263° |
| 2026-05-05 19:11 | -36.84239 | 89.33825 | 34107 ft | 456 kts | 263° |
| 2026-05-05 19:11 | -36.85201 | 89.26025 | 34106 ft | 456 kts | 263° |
| 2026-05-05 19:12 | -36.86163 | 89.18186 | 34102 ft | 456 kts | 264° |
| 2026-05-05 19:12 | -36.87118 | 89.10351 | 34099 ft | 456 kts | 264° |
| 2026-05-05 19:13 | -36.88068 | 89.02516 | 34097 ft | 456 kts | 264° |
| 2026-05-05 19:13 | -36.89008 | 88.94721 | 34091 ft | 456 kts | 264° |
| 2026-05-05 19:14 | -36.89948 | 88.86882 | 34083 ft | 456 kts | 264° |
| 2026-05-05 19:14 | -36.90881 | 88.79055 | 34087 ft | 456 kts | 264° |
| 2026-05-05 19:15 | -36.91811 | 88.71205 | 34084 ft | 456 kts | 264° |
| 2026-05-05 19:15 | -36.92736 | 88.63363 | 34080 ft | 456 kts | 264° |
| 2026-05-05 19:16 | -36.93652 | 88.55543 | 34076 ft | 456 kts | 264° |
| 2026-05-05 19:16 | -36.94567 | 88.47686 | 34073 ft | 456 kts | 264° |
| 2026-05-05 19:17 | -36.95473 | 88.39862 | 34056 ft | 457 kts | 264° |
| 2026-05-05 19:17 | -36.96380 | 88.31982 | 34055 ft | 458 kts | 264° |
| 2026-05-05 19:18 | -36.97282 | 88.24098 | 34064 ft | 457 kts | 264° |
| 2026-05-05 19:18 | -36.98180 | 88.16205 | 34055 ft | 457 kts | 265° |
| 2026-05-05 19:19 | -36.99064 | 88.08385 | 34052 ft | 457 kts | 265° |
| 2026-05-05 19:19 | -36.99992 | 88.00521 | 34039 ft | 458 kts | 262° |
| 2026-05-05 19:20 | -37.01403 | 87.92734 | 34050 ft | 459 kts | 260° |
| 2026-05-05 19:20 | -37.02905 | 87.84947 | 34041 ft | 459 kts | 259° |
| 2026-05-05 19:21 | -37.04407 | 87.77212 | 34036 ft | 459 kts | 260° |
| 2026-05-05 19:21 | -37.05904 | 87.69440 | 34041 ft | 459 kts | 260° |